Clackamas — WDF6614 — position and weather

sailwx.info

Track history (hours):
 
Tides and Currents Weather Stations Pressure Air Temp Water Temp Dewpoint Dewpoint Depression Visibility Wind Speed Wind Dir Waves Ship Positions

Clackamas

Owner: Port o Portland, Portland, OR. More information available from US FCC via Universal Licensing System and Coast Guard Vessel Documentation Center.

Last reported at 2014-Oct-25 15:33 UTC. Time now 2014-Oct-25 16:11 UTC.
Position N 46°15' W 123°42'.

Length 19 m.

Type: Dredging. MMSI: 367476050.

Date/timePositionNaut miles runAvg speedWind from/ knotsBaromVisibWave heightAir tempDewpointWater temp
2014-Oct-25 15:33N 46°15' W 123°42'1 1.2
2014-Oct-25 14:48N 46°14' W 123°43'0 0.0
2014-Oct-25 14:18N 46°14' W 123°43'0 0.0
2014-Oct-25 14:07N 46°14' W 123°43'0 0.0
2014-Oct-25 13:18N 46°14' W 123°43'0 0.0
2014-Oct-25 12:18N 46°14' W 123°43'0 0.0
2014-Oct-25 11:18N 46°14' W 123°43'0 0.0
2014-Oct-25 10:26N 46°14' W 123°43'0 0.0
2014-Oct-25 10:17N 46°14' W 123°43'0 0.0
2014-Oct-25 09:32N 46°14' W 123°43'0 0.0
2014-Oct-25 09:32N 46°14' W 123°43'0 0.1
2014-Oct-25 08:31N 46°14' W 123°43'0 0.0
2014-Oct-25 07:29N 46°14' W 123°43'0 0.1
2014-Oct-25 06:25N 46°14' W 123°43'0 0.0
2014-Oct-25 05:31N 46°14' W 123°43'0 0.0
2014-Oct-25 04:25N 46°14' W 123°43'0 0.0
2014-Oct-25 04:17N 46°14' W 123°43'0 0.1
2014-Oct-25 03:33N 46°14' W 123°43'0 0.1
2014-Oct-25 02:42N 46°14' W 123°43'0 0.0
2014-Oct-25 02:15N 46°14' W 123°43'0 0.0
2014-Oct-25 02:06N 46°14' W 123°43'0 0.0
2014-Oct-25 01:18N 46°14' W 123°43'0 0.0
2014-Oct-25 01:06N 46°14' W 123°43'0 0.0
2014-Oct-25 00:30N 46°14' W 123°43'0 0.0
2014-Oct-25 00:21N 46°14' W 123°43'0 0.0
2014-Oct-24 22:21N 46°14' W 123°43'0 0.0
2014-Oct-24 22:06N 46°14' W 123°43'1 1.3
2014-Oct-24 21:26N 46°14' W 123°42'1 1.0
2014-Oct-24 20:33N 46°14' W 123°43'1 0.6
2014-Oct-24 19:35N 46°15' W 123°43'0 3.8
2014-Oct-24 19:32N 46°15' W 123°42'1 0.5
2014-Oct-24 18:26N 46°14' W 123°43'0 0.5
2014-Oct-24 18:03N 46°14' W 123°42'0 0.2
2014-Oct-24 17:33N 46°14' W 123°43'0 0.3
2014-Oct-24 17:23N 46°14' W 123°43'1 0.7
2014-Oct-24 16:33N 46°15' W 123°43'1 0.5
2014-Oct-24 15:30N 46°14' W 123°43'0 0.0
2014-Oct-24 13:10N 46°14' W 123°43'0 0.5
2014-Oct-24 12:33N 46°14' W 123°42'0 0.2
2014-Oct-24 11:29N 46°14' W 123°43'0 0.1
2014-Oct-24 10:33N 46°14' W 123°43'0 0.0
2014-Oct-24 09:06N 46°14' W 123°43'0 0.2
2014-Oct-24 08:33N 46°14' W 123°43'0 0.4
2014-Oct-24 07:33N 46°15' W 123°42'0 0.9
2014-Oct-24 07:08N 46°14' W 123°43'0 0.1
2014-Oct-24 05:57N 46°14' W 123°43'0 0.0
2014-Oct-24 05:21N 46°14' W 123°43'0 0.0
2014-Oct-24 04:27N 46°14' W 123°43'0 0.0
2014-Oct-24 03:42N 46°14' W 123°43'0 0.0
2014-Oct-24 03:33N 46°14' W 123°43'0 0.0
2014-Oct-24 03:27N 46°14' W 123°43'0 0.0
2014-Oct-24 02:18N 46°14' W 123°43'0 0.0
2014-Oct-24 02:06N 46°14' W 123°43'0 0.0
2014-Oct-24 01:27N 46°14' W 123°43'0 0.0
2014-Oct-24 00:51N 46°14' W 123°43'0 0.0
2014-Oct-24 00:21N 46°14' W 123°43'0 0.0
2014-Oct-23 23:33N 46°14' W 123°43'0 0.0
2014-Oct-23 23:21N 46°14' W 123°43'1 0.7
2014-Oct-23 22:33N 46°15' W 123°43'0 0.4
2014-Oct-23 21:32N 46°15' W 123°42'0 0.3
2014-Oct-23 21:16N 46°15' W 123°42'1 0.9
2014-Oct-23 20:33N 46°14' W 123°43'0 0.2
2014-Oct-23 19:33N 46°14' W 123°42'3 2.8
2014-Oct-23 18:33N 46°12' W 123°45'1 0.5
2014-Oct-23 17:30N 46°13' W 123°45'3 2.9
2014-Oct-23 16:33N 46°14' W 123°42'2 2.3
2014-Oct-23 15:33N 46°13' W 123°45'1 3.2
2014-Oct-23 15:05N 46°12' W 123°45'0 0.0
2014-Oct-23 07:32N 46°12' W 123°45'0 0.0
2014-Oct-23 06:20N 46°12' W 123°45'0 0.0
2014-Oct-23 06:14N 46°12' W 123°45'0 0.0
2014-Oct-23 04:20N 46°12' W 123°45'0 0.0
2014-Oct-23 03:20N 46°12' W 123°45'0 0.0
2014-Oct-23 02:32N 46°12' W 123°45'0 0.0
2014-Oct-23 01:14N 46°12' W 123°45'0 0.0
2014-Oct-22 20:32N 46°12' W 123°45'0 0.0
2014-Oct-22 19:33N 46°12' W 123°45'0 0.0
2014-Oct-22 18:30N 46°12' W 123°45'0 0.0
2014-Oct-22 17:33N 46°12' W 123°45'0 0.0
2014-Oct-22 16:33N 46°12' W 123°45'0 0.0
2014-Oct-22 15:27N 46°12' W 123°45'0 0.0
2014-Oct-22 14:27N 46°12' W 123°45'0 0.0
2014-Oct-22 13:33N 46°12' W 123°45'0 0.0
2014-Oct-22 12:33N 46°12' W 123°45'0 0.0
2014-Oct-22 11:30N 46°12' W 123°45'0 0.0
2014-Oct-22 10:33N 46°12' W 123°45'0 0.0
2014-Oct-22 09:33N 46°12' W 123°45'0 0.0
2014-Oct-22 08:27N 46°12' W 123°45'0 0.0
2014-Oct-22 07:33N 46°12' W 123°45'0 0.0
2014-Oct-22 06:33N 46°12' W 123°45'0 0.0
2014-Oct-22 05:33N 46°12' W 123°45'0 0.0
2014-Oct-22 04:33N 46°12' W 123°45'0 0.0
2014-Oct-22 03:33N 46°12' W 123°45'0 0.0
2014-Oct-22 03:21N 46°12' W 123°45'0 0.0
2014-Oct-22 02:33N 46°12' W 123°45'0 0.0
2014-Oct-22 01:33N 46°12' W 123°45'0 0.0
2014-Oct-22 00:33N 46°12' W 123°45'0 0.0
2014-Oct-21 23:33N 46°12' W 123°45'0 0.0
2014-Oct-21 22:33N 46°12' W 123°45'0 0.0
2014-Oct-21 21:33N 46°12' W 123°45'0 0.0
2014-Oct-21 20:33N 46°12' W 123°45'0 0.0
2014-Oct-21 19:33N 46°12' W 123°45'0 0.0
2014-Oct-21 18:33N 46°12' W 123°45'0 0.0
2014-Oct-21 17:33N 46°12' W 123°45'0 0.0
2014-Oct-21 16:30N 46°12' W 123°45'0 0.0
2014-Oct-21 14:15N 46°12' W 123°45'0 0.0
2014-Oct-21 13:33N 46°12' W 123°45'0 0.0
2014-Oct-21 12:33N 46°12' W 123°45'0 0.0
2014-Oct-21 11:33N 46°12' W 123°45'0 0.0
2014-Oct-21 11:00N 46°12' W 123°45'0 0.0
2014-Oct-21 10:33N 46°12' W 123°45'0 0.0
2014-Oct-21 10:14N 46°12' W 123°45'0 0.0
2014-Oct-21 09:33N 46°12' W 123°45'0 0.0
2014-Oct-21 09:29N 46°12' W 123°45'0 0.0
2014-Oct-21 08:33N 46°12' W 123°45'0 0.0
2014-Oct-21 08:15N 46°12' W 123°45'0 0.0
2014-Oct-21 07:33N 46°12' W 123°45'0 0.0
2014-Oct-21 06:33N 46°12' W 123°45'0 0.0
2014-Oct-21 05:33N 46°12' W 123°45'0 0.0
2014-Oct-21 04:33N 46°12' W 123°45'0 0.0
2014-Oct-21 03:32N 46°12' W 123°45'0 0.0
2014-Oct-21 02:33N 46°12' W 123°45'0 0.0
2014-Oct-21 01:32N 46°12' W 123°45'0 0.0
2014-Oct-21 00:33N 46°12' W 123°45'0 0.0
2014-Oct-20 23:32N 46°12' W 123°45'0 0.0
2014-Oct-20 22:32N 46°12' W 123°45'0 0.0
2014-Oct-20 21:33N 46°12' W 123°45'1 0.7
2014-Oct-20 20:33N 46°13' W 123°45'3 2.5
2014-Oct-20 19:32N 46°14' W 123°42'1 1.0
2014-Oct-20 18:33N 46°15' W 123°41'7 6.7
2014-Oct-20 17:33N 46°16' W 123°32'4 3.1
2014-Oct-20 16:24N 46°15' W 123°27'7 7.8
2014-Oct-20 15:33N 46°15' W 123°36'7 7.0
2014-Oct-20 14:31N 46°12' W 123°45'0 0.0
2014-Oct-20 13:31N 46°12' W 123°45'0 0.0
2014-Oct-20 12:31N 46°12' W 123°45'0 0.0
2014-Oct-20 11:31N 46°12' W 123°45'0 0.0
2014-Oct-20 10:28N 46°12' W 123°45'0 0.0
2014-Oct-20 09:31N 46°12' W 123°45'0 0.0
2014-Oct-20 08:28N 46°12' W 123°45'0 0.0
2014-Oct-20 07:31N 46°12' W 123°45'0 0.0
2014-Oct-20 06:31N 46°12' W 123°45'0 0.0
2014-Oct-20 05:31N 46°12' W 123°45'0 0.0
2014-Oct-20 04:31N 46°12' W 123°45'0 0.0
2014-Oct-20 03:25N 46°12' W 123°45'0 0.0
2014-Oct-20 02:31N 46°12' W 123°45'0 0.0
2014-Oct-20 01:28N 46°12' W 123°45'0 0.0
2014-Oct-20 00:28N 46°12' W 123°45'0 0.0
2014-Oct-19 22:31N 46°12' W 123°45'0 0.0
2014-Oct-19 20:10N 46°12' W 123°45'0 0.0
2014-Oct-19 19:22N 46°12' W 123°45'0 0.0
2014-Oct-19 18:28N 46°12' W 123°45'0 0.0
2014-Oct-19 15:31N 46°12' W 123°45'0 0.0
2014-Oct-19 14:28N 46°12' W 123°45'0 0.0
2014-Oct-19 13:31N 46°12' W 123°45'0 0.0
2014-Oct-19 12:31N 46°12' W 123°45'0 0.0
2014-Oct-19 11:31N 46°12' W 123°45'0 0.0
2014-Oct-19 10:31N 46°12' W 123°45'0 0.0
2014-Oct-19 09:31N 46°12' W 123°45'0 0.0
2014-Oct-19 08:31N 46°12' W 123°45'0 0.0
2014-Oct-19 07:25N 46°12' W 123°45'0 0.0
2014-Oct-19 06:31N 46°12' W 123°45'0 0.0
2014-Oct-19 05:31N 46°12' W 123°45'0 0.0
2014-Oct-19 04:31N 46°12' W 123°45'0 0.0
2014-Oct-19 03:31N 46°12' W 123°45'0 0.0
2014-Oct-19 02:31N 46°12' W 123°45'0 0.0
2014-Oct-19 01:31N 46°12' W 123°45'0 0.0
2014-Oct-19 00:31N 46°12' W 123°45'0 0.0
2014-Oct-18 23:31N 46°12' W 123°45'0 0.0
2014-Oct-18 22:31N 46°12' W 123°45'0 0.0
2014-Oct-18 21:31N 46°12' W 123°45'0 0.0
2014-Oct-18 20:31N 46°12' W 123°45'0 0.0
2014-Oct-18 19:31N 46°12' W 123°45'0 0.0
2014-Oct-18 18:31N 46°12' W 123°45'0 0.0
2014-Oct-18 17:31N 46°12' W 123°45'0 0.0
2014-Oct-18 16:31N 46°12' W 123°45'0 0.0
2014-Oct-18 15:31N 46°12' W 123°45'0 0.0
2014-Oct-18 02:16N 46°12' W 123°45'0 0.0
2014-Oct-18 01:31N 46°12' W 123°45'0 0.0
2014-Oct-18 00:31N 46°12' W 123°45'0 0.0
2014-Oct-17 23:31N 46°12' W 123°45'0 0.0
2014-Oct-17 22:31N 46°12' W 123°45'0 0.0
2014-Oct-17 21:31N 46°12' W 123°45'0 0.0
2014-Oct-17 20:28N 46°12' W 123°45'0 0.0
2014-Oct-17 19:10N 46°12' W 123°45'0 0.0
2014-Oct-16 23:21N 46°12' W 123°45'0 0.0
2014-Oct-16 22:32N 46°12' W 123°45'3 0.1
2014-Oct-15 23:33N 46°14' W 123°43'0 0.1
2014-Oct-15 21:33N 46°14' W 123°43'1 0.8
2014-Oct-15 20:25N 46°14' W 123°42'1 0.9
2014-Oct-15 19:26N 46°14' W 123°43'1 0.6
2014-Oct-15 18:32N 46°15' W 123°43'1 0.6
2014-Oct-15 17:04N 46°14' W 123°42'0 0.6
2014-Oct-15 16:33N 46°14' W 123°42'  
Track history (hours):
 
Tides and Currents Weather Stations Pressure Air Temp Water Temp Dewpoint Dewpoint Depression Visibility Wind Speed Wind Dir Waves Ship Positions

Clackamas

Owner: Port o Portland, Portland, OR. More information available from US FCC via Universal Licensing System and Coast Guard Vessel Documentation Center.

Last reported at 2014-Oct-25 15:33 UTC. Time now 2014-Oct-25 16:11 UTC.
Position N 46°15' W 123°42'.

Length 19 m.

Type: Dredging. MMSI: 367476050.

Date/timePositionNaut miles runAvg speedWind from/ knotsBaromVisibWave heightAir tempDewpointWater temp
2014-Oct-25 15:33N 46°15' W 123°42'1 1.2
2014-Oct-25 14:48N 46°14' W 123°43'0 0.0
2014-Oct-25 14:18N 46°14' W 123°43'0 0.0
2014-Oct-25 14:07N 46°14' W 123°43'0 0.0
2014-Oct-25 13:18N 46°14' W 123°43'0 0.0
2014-Oct-25 12:18N 46°14' W 123°43'0 0.0
2014-Oct-25 11:18N 46°14' W 123°43'0 0.0
2014-Oct-25 10:26N 46°14' W 123°43'0 0.0
2014-Oct-25 10:17N 46°14' W 123°43'0 0.0
2014-Oct-25 09:32N 46°14' W 123°43'0 0.0
2014-Oct-25 09:32N 46°14' W 123°43'0 0.1
2014-Oct-25 08:31N 46°14' W 123°43'0 0.0
2014-Oct-25 07:29N 46°14' W 123°43'0 0.1
2014-Oct-25 06:25N 46°14' W 123°43'0 0.0
2014-Oct-25 05:31N 46°14' W 123°43'0 0.0
2014-Oct-25 04:25N 46°14' W 123°43'0 0.0
2014-Oct-25 04:17N 46°14' W 123°43'0 0.1
2014-Oct-25 03:33N 46°14' W 123°43'0 0.1
2014-Oct-25 02:42N 46°14' W 123°43'0 0.0
2014-Oct-25 02:15N 46°14' W 123°43'0 0.0
2014-Oct-25 02:06N 46°14' W 123°43'0 0.0
2014-Oct-25 01:18N 46°14' W 123°43'0 0.0
2014-Oct-25 01:06N 46°14' W 123°43'0 0.0
2014-Oct-25 00:30N 46°14' W 123°43'0 0.0
2014-Oct-25 00:21N 46°14' W 123°43'0 0.0
2014-Oct-24 22:21N 46°14' W 123°43'0 0.0
2014-Oct-24 22:06N 46°14' W 123°43'1 1.3
2014-Oct-24 21:26N 46°14' W 123°42'1 1.0
2014-Oct-24 20:33N 46°14' W 123°43'1 0.6
2014-Oct-24 19:35N 46°15' W 123°43'0 3.8
2014-Oct-24 19:32N 46°15' W 123°42'1 0.5
2014-Oct-24 18:26N 46°14' W 123°43'0 0.5
2014-Oct-24 18:03N 46°14' W 123°42'0 0.2
2014-Oct-24 17:33N 46°14' W 123°43'0 0.3
2014-Oct-24 17:23N 46°14' W 123°43'1 0.7
2014-Oct-24 16:33N 46°15' W 123°43'1 0.5
2014-Oct-24 15:30N 46°14' W 123°43'0 0.0
2014-Oct-24 13:10N 46°14' W 123°43'0 0.5
2014-Oct-24 12:33N 46°14' W 123°42'0 0.2
2014-Oct-24 11:29N 46°14' W 123°43'0 0.1
2014-Oct-24 10:33N 46°14' W 123°43'0 0.0
2014-Oct-24 09:06N 46°14' W 123°43'0 0.2
2014-Oct-24 08:33N 46°14' W 123°43'0 0.4
2014-Oct-24 07:33N 46°15' W 123°42'0 0.9
2014-Oct-24 07:08N 46°14' W 123°43'0 0.1
2014-Oct-24 05:57N 46°14' W 123°43'0 0.0
2014-Oct-24 05:21N 46°14' W 123°43'0 0.0
2014-Oct-24 04:27N 46°14' W 123°43'0 0.0
2014-Oct-24 03:42N 46°14' W 123°43'0 0.0
2014-Oct-24 03:33N 46°14' W 123°43'0 0.0
2014-Oct-24 03:27N 46°14' W 123°43'0 0.0
2014-Oct-24 02:18N 46°14' W 123°43'0 0.0
2014-Oct-24 02:06N 46°14' W 123°43'0 0.0
2014-Oct-24 01:27N 46°14' W 123°43'0 0.0
2014-Oct-24 00:51N 46°14' W 123°43'0 0.0
2014-Oct-24 00:21N 46°14' W 123°43'0 0.0
2014-Oct-23 23:33N 46°14' W 123°43'0 0.0
2014-Oct-23 23:21N 46°14' W 123°43'1 0.7
2014-Oct-23 22:33N 46°15' W 123°43'0 0.4
2014-Oct-23 21:32N 46°15' W 123°42'0 0.3
2014-Oct-23 21:16N 46°15' W 123°42'1 0.9
2014-Oct-23 20:33N 46°14' W 123°43'0 0.2
2014-Oct-23 19:33N 46°14' W 123°42'3 2.8
2014-Oct-23 18:33N 46°12' W 123°45'1 0.5
2014-Oct-23 17:30N 46°13' W 123°45'3 2.9
2014-Oct-23 16:33N 46°14' W 123°42'2 2.3
2014-Oct-23 15:33N 46°13' W 123°45'1 3.2
2014-Oct-23 15:05N 46°12' W 123°45'0 0.0
2014-Oct-23 07:32N 46°12' W 123°45'0 0.0
2014-Oct-23 06:20N 46°12' W 123°45'0 0.0
2014-Oct-23 06:14N 46°12' W 123°45'0 0.0
2014-Oct-23 04:20N 46°12' W 123°45'0 0.0
2014-Oct-23 03:20N 46°12' W 123°45'0 0.0
2014-Oct-23 02:32N 46°12' W 123°45'0 0.0
2014-Oct-23 01:14N 46°12' W 123°45'0 0.0
2014-Oct-22 20:32N 46°12' W 123°45'0 0.0
2014-Oct-22 19:33N 46°12' W 123°45'0 0.0
2014-Oct-22 18:30N 46°12' W 123°45'0 0.0
2014-Oct-22 17:33N 46°12' W 123°45'0 0.0
2014-Oct-22 16:33N 46°12' W 123°45'0 0.0
2014-Oct-22 15:27N 46°12' W 123°45'0 0.0
2014-Oct-22 14:27N 46°12' W 123°45'0 0.0
2014-Oct-22 13:33N 46°12' W 123°45'0 0.0
2014-Oct-22 12:33N 46°12' W 123°45'0 0.0
2014-Oct-22 11:30N 46°12' W 123°45'0 0.0
2014-Oct-22 10:33N 46°12' W 123°45'0 0.0
2014-Oct-22 09:33N 46°12' W 123°45'0 0.0
2014-Oct-22 08:27N 46°12' W 123°45'0 0.0
2014-Oct-22 07:33N 46°12' W 123°45'0 0.0
2014-Oct-22 06:33N 46°12' W 123°45'0 0.0
2014-Oct-22 05:33N 46°12' W 123°45'0 0.0
2014-Oct-22 04:33N 46°12' W 123°45'0 0.0
2014-Oct-22 03:33N 46°12' W 123°45'0 0.0
2014-Oct-22 03:21N 46°12' W 123°45'0 0.0
2014-Oct-22 02:33N 46°12' W 123°45'0 0.0
2014-Oct-22 01:33N 46°12' W 123°45'0 0.0
2014-Oct-22 00:33N 46°12' W 123°45'0 0.0
2014-Oct-21 23:33N 46°12' W 123°45'0 0.0
2014-Oct-21 22:33N 46°12' W 123°45'0 0.0
2014-Oct-21 21:33N 46°12' W 123°45'0 0.0
2014-Oct-21 20:33N 46°12' W 123°45'0 0.0
2014-Oct-21 19:33N 46°12' W 123°45'0 0.0
2014-Oct-21 18:33N 46°12' W 123°45'0 0.0
2014-Oct-21 17:33N 46°12' W 123°45'0 0.0
2014-Oct-21 16:30N 46°12' W 123°45'0 0.0
2014-Oct-21 14:15N 46°12' W 123°45'0 0.0
2014-Oct-21 13:33N 46°12' W 123°45'0 0.0
2014-Oct-21 12:33N 46°12' W 123°45'0 0.0
2014-Oct-21 11:33N 46°12' W 123°45'0 0.0
2014-Oct-21 11:00N 46°12' W 123°45'0 0.0
2014-Oct-21 10:33N 46°12' W 123°45'0 0.0
2014-Oct-21 10:14N 46°12' W 123°45'0 0.0
2014-Oct-21 09:33N 46°12' W 123°45'0 0.0
2014-Oct-21 09:29N 46°12' W 123°45'0 0.0
2014-Oct-21 08:33N 46°12' W 123°45'0 0.0
2014-Oct-21 08:15N 46°12' W 123°45'0 0.0
2014-Oct-21 07:33N 46°12' W 123°45'0 0.0
2014-Oct-21 06:33N 46°12' W 123°45'0 0.0
2014-Oct-21 05:33N 46°12' W 123°45'0 0.0
2014-Oct-21 04:33N 46°12' W 123°45'0 0.0
2014-Oct-21 03:32N 46°12' W 123°45'0 0.0
2014-Oct-21 02:33N 46°12' W 123°45'0 0.0
2014-Oct-21 01:32N 46°12' W 123°45'0 0.0
2014-Oct-21 00:33N 46°12' W 123°45'0 0.0
2014-Oct-20 23:32N 46°12' W 123°45'0 0.0
2014-Oct-20 22:32N 46°12' W 123°45'0 0.0
2014-Oct-20 21:33N 46°12' W 123°45'1 0.7
2014-Oct-20 20:33N 46°13' W 123°45'3 2.5
2014-Oct-20 19:32N 46°14' W 123°42'1 1.0
2014-Oct-20 18:33N 46°15' W 123°41'7 6.7
2014-Oct-20 17:33N 46°16' W 123°32'4 3.1
2014-Oct-20 16:24N 46°15' W 123°27'7 7.8
2014-Oct-20 15:33N 46°15' W 123°36'7 7.0
2014-Oct-20 14:31N 46°12' W 123°45'0 0.0
2014-Oct-20 13:31N 46°12' W 123°45'0 0.0
2014-Oct-20 12:31N 46°12' W 123°45'0 0.0
2014-Oct-20 11:31N 46°12' W 123°45'0 0.0
2014-Oct-20 10:28N 46°12' W 123°45'0 0.0
2014-Oct-20 09:31N 46°12' W 123°45'0 0.0
2014-Oct-20 08:28N 46°12' W 123°45'0 0.0
2014-Oct-20 07:31N 46°12' W 123°45'0 0.0
2014-Oct-20 06:31N 46°12' W 123°45'0 0.0
2014-Oct-20 05:31N 46°12' W 123°45'0 0.0
2014-Oct-20 04:31N 46°12' W 123°45'0 0.0
2014-Oct-20 03:25N 46°12' W 123°45'0 0.0
2014-Oct-20 02:31N 46°12' W 123°45'0 0.0
2014-Oct-20 01:28N 46°12' W 123°45'0 0.0
2014-Oct-20 00:28N 46°12' W 123°45'0 0.0
2014-Oct-19 22:31N 46°12' W 123°45'0 0.0
2014-Oct-19 20:10N 46°12' W 123°45'0 0.0
2014-Oct-19 19:22N 46°12' W 123°45'0 0.0
2014-Oct-19 18:28N 46°12' W 123°45'0 0.0
2014-Oct-19 15:31N 46°12' W 123°45'0 0.0
2014-Oct-19 14:28N 46°12' W 123°45'0 0.0
2014-Oct-19 13:31N 46°12' W 123°45'0 0.0
2014-Oct-19 12:31N 46°12' W 123°45'0 0.0
2014-Oct-19 11:31N 46°12' W 123°45'0 0.0
2014-Oct-19 10:31N 46°12' W 123°45'0 0.0
2014-Oct-19 09:31N 46°12' W 123°45'0 0.0
2014-Oct-19 08:31N 46°12' W 123°45'0 0.0
2014-Oct-19 07:25N 46°12' W 123°45'0 0.0
2014-Oct-19 06:31N 46°12' W 123°45'0 0.0
2014-Oct-19 05:31N 46°12' W 123°45'0 0.0
2014-Oct-19 04:31N 46°12' W 123°45'0 0.0
2014-Oct-19 03:31N 46°12' W 123°45'0 0.0
2014-Oct-19 02:31N 46°12' W 123°45'0 0.0
2014-Oct-19 01:31N 46°12' W 123°45'0 0.0
2014-Oct-19 00:31N 46°12' W 123°45'0 0.0
2014-Oct-18 23:31N 46°12' W 123°45'0 0.0
2014-Oct-18 22:31N 46°12' W 123°45'0 0.0
2014-Oct-18 21:31N 46°12' W 123°45'0 0.0
2014-Oct-18 20:31N 46°12' W 123°45'0 0.0
2014-Oct-18 19:31N 46°12' W 123°45'0 0.0
2014-Oct-18 18:31N 46°12' W 123°45'0 0.0
2014-Oct-18 17:31N 46°12' W 123°45'0 0.0
2014-Oct-18 16:31N 46°12' W 123°45'0 0.0
2014-Oct-18 15:31N 46°12' W 123°45'0 0.0
2014-Oct-18 02:16N 46°12' W 123°45'0 0.0
2014-Oct-18 01:31N 46°12' W 123°45'0 0.0
2014-Oct-18 00:31N 46°12' W 123°45'0 0.0
2014-Oct-17 23:31N 46°12' W 123°45'0 0.0
2014-Oct-17 22:31N 46°12' W 123°45'0 0.0
2014-Oct-17 21:31N 46°12' W 123°45'0 0.0
2014-Oct-17 20:28N 46°12' W 123°45'0 0.0
2014-Oct-17 19:10N 46°12' W 123°45'0 0.0
2014-Oct-16 23:21N 46°12' W 123°45'0 0.0
2014-Oct-16 22:32N 46°12' W 123°45'3 0.1
2014-Oct-15 23:33N 46°14' W 123°43'0 0.1
2014-Oct-15 21:33N 46°14' W 123°43'1 0.8
2014-Oct-15 20:25N 46°14' W 123°42'1 0.9
2014-Oct-15 19:26N 46°14' W 123°43'1 0.6
2014-Oct-15 18:32N 46°15' W 123°43'1 0.6
2014-Oct-15 17:04N 46°14' W 123°42'0 0.6
2014-Oct-15 16:33N 46°14' W 123°42'  

Dump ship's entire track history